createdAt,value
2023-01-19T00:01:47.472Z,86.83
2023-01-19T00:04:17.182Z,86.69
2023-01-19T00:06:47.107Z,86.57
2023-01-19T00:09:16.898Z,86.50
2023-01-19T00:11:46.686Z,87.71
2023-01-19T00:14:16.747Z,88.05
2023-01-19T00:16:46.621Z,88.64
2023-01-19T00:19:16.819Z,88.24
2023-01-19T00:21:46.626Z,87.57
2023-01-19T00:24:16.232Z,87.04
2023-01-19T00:26:46.085Z,88.48
2023-01-19T00:29:16.092Z,88.32
2023-01-19T00:31:46.185Z,87.67
2023-01-19T00:34:16.450Z,87.58
2023-01-19T00:36:46.256Z,88.22
2023-01-19T00:39:16.054Z,88.75
2023-01-19T00:42:03.484Z,88.32
2023-01-19T00:44:33.600Z,88.05
2023-01-19T00:47:05.545Z,88.57
2023-01-19T00:49:35.354Z,88.35
2023-01-19T00:52:07.011Z,88.78
2023-01-19T00:54:36.849Z,88.78
2023-01-19T00:57:06.666Z,88.67
2023-01-19T00:59:36.745Z,88.42
2023-01-19T01:02:08.303Z,88.70
2023-01-19T01:04:38.574Z,88.20
2023-01-19T01:07:08.898Z,89.17
2023-01-19T01:09:38.854Z,88.95
2023-01-19T01:12:09.679Z,88.41
2023-01-19T01:14:39.943Z,88.53
2023-01-19T01:17:11.558Z,88.91
2023-01-19T01:19:42.545Z,89.09
2023-01-19T01:22:12.374Z,89.66
2023-01-19T01:24:42.220Z,90.13
2023-01-19T01:27:12.066Z,89.19
2023-01-19T01:29:43.655Z,89.57
2023-01-19T01:32:17.330Z,89.82
2023-01-19T01:34:47.111Z,89.87
2023-01-19T01:37:16.929Z,90.34
2023-01-19T01:39:46.724Z,90.45
2023-01-19T01:42:19.298Z,90.21
2023-01-19T01:44:55.091Z,90.19
2023-01-19T01:47:25.306Z,90.32
2023-01-19T01:49:58.589Z,90.62
2023-01-19T01:52:30.475Z,90.67
2023-01-19T01:55:03.133Z,90.90
2023-01-19T01:57:33.099Z,91.36
2023-01-19T02:00:04.371Z,90.16
2023-01-19T02:02:53.564Z,90.92
2023-01-19T02:05:34.595Z,91.77
2023-01-19T02:08:36.083Z,92.17
2023-01-19T02:11:24.485Z,92.90
2023-01-19T02:13:54.704Z,92.94
2023-01-19T02:16:24.516Z,93.00
2023-01-19T02:18:54.313Z,92.43
2023-01-19T02:21:27.148Z,92.40
2023-01-19T02:24:00.200Z,93.01
2023-01-19T02:26:32.990Z,92.75
2023-01-19T02:29:05.861Z,92.69
2023-01-19T02:31:38.981Z,92.99
2023-01-19T02:34:15.358Z,93.42
2023-01-19T02:36:50.754Z,92.75
2023-01-19T02:39:23.321Z,93.16
2023-01-19T02:41:56.192Z,93.30
2023-01-19T02:44:27.444Z,93.89
2023-01-19T02:46:57.652Z,93.85
2023-01-19T02:49:30.212Z,94.51
2023-01-19T02:52:01.149Z,94.18
2023-01-19T02:54:50.226Z,94.73
2023-01-19T02:57:34.202Z,93.51
2023-01-19T03:00:10.927Z,93.51
2023-01-19T03:02:44.011Z,94.85
2023-01-19T03:05:20.062Z,94.80
2023-01-19T03:07:50.671Z,94.94
2023-01-19T03:10:58.136Z,94.88
2023-01-19T03:13:42.734Z,94.17
2023-01-19T03:16:33.099Z,94.84
2023-01-19T03:19:11.621Z,94.98
2023-01-19T03:21:44.446Z,94.69
2023-01-19T03:24:16.173Z,94.86
2023-01-19T03:29:35.977Z,93.21
2023-01-19T03:32:09.761Z,94.09
2023-01-19T03:34:42.691Z,94.99
2023-01-19T03:37:14.508Z,94.30
2023-01-19T03:39:44.408Z,94.43
2023-01-19T03:42:17.035Z,93.67
2023-01-19T03:44:49.645Z,93.96
2023-01-19T03:47:20.945Z,94.67
2023-01-19T03:49:52.980Z,95.09
2023-01-19T03:52:35.748Z,95.25
2023-01-19T03:55:07.920Z,95.32
2023-01-19T03:57:38.220Z,95.32
2023-01-19T04:00:10.639Z,95.31
2023-01-19T04:02:42.146Z,95.72
2023-01-19T04:05:11.668Z,94.41
2023-01-19T04:07:41.430Z,94.96
2023-01-19T04:10:12.753Z,95.11
2023-01-19T04:12:42.823Z,94.53
2023-01-19T04:15:12.920Z,94.66
2023-01-19T04:17:43.037Z,94.74
2023-01-19T04:20:14.283Z,95.15
2023-01-19T04:22:44.576Z,94.46
2023-01-19T04:25:14.412Z,94.46
2023-01-19T04:27:44.186Z,95.17
2023-01-19T04:30:15.245Z,94.04
2023-01-19T04:32:45.016Z,94.35
2023-01-19T04:35:14.743Z,94.35
2023-01-19T04:37:45.062Z,94.82
2023-01-19T04:40:16.973Z,94.36
2023-01-19T04:42:47.274Z,94.36
2023-01-19T04:45:17.359Z,95.15
2023-01-19T04:47:47.127Z,94.60
2023-01-19T04:50:17.585Z,94.26
2023-01-19T04:52:48.979Z,94.29
2023-01-19T04:55:19.830Z,94.02
2023-01-19T04:57:49.780Z,94.50
2023-01-19T05:00:20.726Z,94.28
2023-01-19T05:02:50.747Z,93.90
2023-01-19T05:05:20.679Z,94.47
2023-01-19T05:07:50.718Z,93.28
2023-01-19T05:10:20.358Z,93.41
2023-01-19T05:12:50.118Z,93.77
2023-01-19T05:15:19.838Z,94.16
2023-01-19T05:17:49.977Z,94.16
2023-01-19T05:20:19.923Z,93.44
2023-01-19T05:22:54.068Z,93.65
2023-01-19T05:25:23.584Z,93.07
2023-01-19T05:27:53.593Z,92.49
2023-01-19T05:30:23.207Z,92.48
2023-01-19T05:32:52.980Z,92.48
2023-01-19T05:35:35.371Z,92.23
2023-01-19T05:37:55.173Z,93.50
2023-01-19T05:40:24.673Z,93.87
2023-01-19T05:42:54.489Z,93.24
2023-01-19T05:45:24.167Z,92.98
2023-01-19T05:47:55.864Z,93.31
2023-01-19T05:50:25.759Z,92.77
2023-01-19T05:52:55.613Z,92.10
2023-01-19T05:55:25.576Z,93.20
2023-01-19T05:57:55.185Z,92.69
2023-01-19T06:00:26.594Z,93.28
2023-01-19T06:02:56.541Z,93.09
2023-01-19T06:05:26.071Z,92.68
2023-01-19T06:07:57.881Z,92.33
2023-01-19T06:10:27.687Z,92.33
2023-01-19T06:12:57.452Z,91.96
2023-01-19T06:15:27.397Z,92.10
2023-01-19T06:17:57.174Z,91.93
2023-01-19T06:20:27.014Z,91.92
2023-01-19T06:22:59.259Z,92.54
2023-01-19T06:25:29.558Z,92.14
2023-01-19T06:27:59.692Z,92.48
2023-01-19T06:30:29.192Z,92.04
2023-01-19T06:32:59.216Z,92.55
2023-01-19T06:35:29.082Z,92.42
2023-01-19T06:37:58.935Z,92.19
2023-01-19T06:40:28.469Z,92.19
2023-01-19T06:42:58.992Z,92.14
2023-01-19T06:45:28.903Z,92.14
2023-01-19T06:47:58.669Z,92.14
2023-01-19T06:50:28.658Z,92.40
2023-01-19T06:52:58.783Z,91.79
2023-01-19T06:55:28.875Z,91.14
2023-01-19T06:58:01.705Z,91.07
2023-01-19T07:00:31.738Z,90.69
2023-01-19T07:03:02.388Z,91.17
2023-01-19T07:05:32.605Z,91.60
2023-01-19T07:08:03.363Z,91.63
2023-01-19T07:11:26.815Z,92.16
2023-01-19T07:13:05.777Z,92.16
2023-01-19T07:15:35.603Z,91.73
2023-01-19T07:18:08.168Z,92.69
2023-01-19T07:20:39.069Z,92.01
2023-01-19T07:23:09.266Z,92.40
2023-01-19T07:25:39.698Z,92.65
2023-01-19T07:28:12.901Z,92.83
2023-01-19T07:30:46.293Z,92.60
2023-01-19T07:33:16.169Z,92.50
2023-01-19T07:35:49.576Z,92.67
2023-01-19T07:38:20.284Z,93.18
2023-01-19T07:40:50.063Z,92.75
2023-01-19T07:43:19.926Z,92.73
2023-01-19T07:45:50.172Z,92.78
2023-01-19T07:48:20.095Z,92.67
2023-01-19T07:50:49.998Z,92.71
2023-01-19T07:53:20.118Z,92.49
2023-01-19T07:55:53.367Z,91.86
2023-01-19T07:58:23.425Z,92.71
2023-01-19T08:00:53.586Z,91.39
2023-01-19T08:03:23.753Z,91.88
2023-01-19T08:05:54.525Z,92.57
2023-01-19T08:08:24.327Z,92.93
2023-01-19T08:10:53.999Z,93.36
2023-01-19T08:13:23.916Z,92.68
2023-01-19T08:15:55.208Z,92.70
2023-01-19T08:18:24.754Z,92.26
2023-01-19T08:20:54.527Z,92.64
2023-01-19T08:23:24.312Z,92.39
2023-01-19T08:25:54.189Z,92.71
2023-01-19T08:28:24.205Z,92.52
2023-01-19T08:30:56.535Z,93.09
2023-01-19T08:33:26.644Z,92.60
2023-01-19T08:35:56.479Z,92.39
2023-01-19T08:38:26.025Z,92.51
2023-01-19T08:40:55.939Z,92.22
2023-01-19T08:43:25.988Z,93.07
2023-01-19T08:45:56.494Z,92.49
2023-01-19T08:48:26.011Z,91.80
2023-01-19T08:50:55.860Z,91.53
2023-01-19T08:53:26.033Z,91.47
2023-01-19T08:55:59.511Z,92.03
2023-01-19T08:58:29.412Z,91.77
2023-01-19T09:01:03.043Z,90.01
2023-01-19T09:03:32.688Z,89.61
2023-01-19T09:06:03.081Z,89.18
2023-01-19T09:08:32.926Z,88.74
2023-01-19T09:11:02.966Z,89.11
2023-01-19T09:13:32.885Z,87.88
2023-01-19T09:16:04.840Z,87.98
2023-01-19T09:18:35.846Z,88.22
2023-01-19T09:21:05.804Z,87.89
2023-01-19T09:23:35.607Z,87.42
2023-01-19T09:26:07.438Z,87.12
2023-01-19T09:28:38.104Z,88.04
2023-01-19T09:31:09.636Z,87.23
2023-01-19T09:33:39.634Z,88.34
2023-01-19T09:36:11.263Z,88.34
2023-01-19T09:38:41.390Z,88.71
2023-01-19T09:41:16.748Z,88.67
2023-01-19T09:43:49.241Z,88.97
2023-01-19T09:46:24.548Z,88.67
2023-01-19T09:48:57.704Z,88.18
2023-01-19T09:51:30.082Z,87.88
2023-01-19T09:54:22.444Z,88.14
2023-01-19T09:56:53.873Z,87.85
2023-01-19T09:59:29.047Z,88.08
2023-01-19T10:02:22.219Z,88.91
2023-01-19T10:05:02.977Z,88.52
2023-01-19T10:07:44.760Z,87.79
2023-01-19T10:10:28.042Z,87.31
2023-01-19T10:13:17.748Z,88.10
2023-01-19T10:15:53.147Z,88.43
2023-01-19T10:18:29.154Z,88.38
2023-01-19T10:21:13.610Z,87.97
2023-01-19T10:23:58.214Z,87.01
2023-01-19T10:26:32.339Z,86.96
2023-01-19T10:29:21.246Z,87.95
2023-01-19T10:31:53.745Z,88.68
2023-01-19T10:34:24.033Z,86.85
2023-01-19T10:36:56.900Z,86.73
2023-01-19T10:39:26.830Z,86.50
2023-01-19T10:41:58.529Z,86.74
2023-01-19T10:44:31.672Z,88.02
2023-01-19T10:47:02.401Z,87.20
2023-01-19T10:49:38.332Z,85.78
2023-01-19T10:52:09.578Z,86.49
2023-01-19T10:54:39.127Z,86.34
2023-01-19T10:57:12.442Z,86.33
2023-01-19T10:59:51.285Z,86.11
2023-01-19T11:02:29.074Z,86.13
2023-01-19T11:05:04.951Z,85.67
2023-01-19T11:07:35.861Z,84.47
2023-01-19T11:10:20.793Z,84.41
2023-01-19T11:13:10.104Z,84.12
2023-01-19T11:15:45.866Z,85.44
2023-01-19T11:18:25.167Z,84.50
2023-01-19T11:20:58.209Z,83.96
2023-01-19T11:23:35.875Z,83.37
2023-01-19T11:28:51.635Z,83.12
2023-01-19T11:31:31.429Z,82.69
2023-01-19T11:34:06.553Z,83.76
2023-01-19T11:36:37.759Z,83.71
2023-01-19T11:39:28.416Z,83.95
2023-01-19T11:42:03.552Z,83.34
2023-01-19T11:44:39.005Z,84.10
2023-01-19T11:47:17.280Z,83.35
2023-01-19T11:50:01.743Z,83.35
2023-01-19T11:52:46.356Z,82.78
2023-01-19T11:55:24.981Z,81.59
2023-01-19T11:57:55.509Z,81.03
2023-01-19T12:00:31.154Z,81.03
2023-01-19T12:03:03.729Z,81.03
2023-01-19T12:05:36.014Z,79.90
2023-01-19T12:08:09.223Z,78.96
2023-01-19T12:10:43.505Z,79.47
2023-01-19T12:13:22.785Z,79.69
2023-01-19T12:15:58.346Z,78.81
2023-01-19T12:18:31.184Z,78.73
2023-01-19T12:21:03.830Z,78.71
2023-01-19T12:23:58.476Z,79.15
2023-01-19T12:26:33.818Z,78.17
2023-01-19T12:29:09.284Z,78.48
2023-01-19T12:31:40.713Z,77.78
2023-01-19T12:34:29.709Z,76.04
2023-01-19T12:37:05.313Z,75.18
2023-01-19T12:39:35.813Z,75.11
2023-01-19T12:42:18.508Z,72.58
2023-01-19T12:44:49.530Z,74.22
2023-01-19T12:47:21.068Z,74.22
2023-01-19T12:49:54.502Z,71.76
2023-01-19T12:52:33.972Z,70.72
2023-01-19T12:55:19.173Z,69.50
2023-01-19T12:58:09.794Z,71.03
2023-01-19T13:00:44.557Z,72.12
2023-01-19T13:03:29.546Z,73.00
2023-01-19T13:05:59.857Z,73.33
2023-01-19T13:08:48.708Z,73.35
2023-01-19T13:11:20.034Z,73.69
2023-01-19T13:13:52.871Z,73.03
2023-01-19T13:16:27.421Z,73.85
2023-01-19T13:19:05.186Z,73.33
2023-01-19T13:21:39.429Z,73.99
2023-01-19T13:24:11.813Z,71.74
2023-01-19T13:26:53.590Z,72.72
2023-01-19T13:29:38.356Z,67.48
2023-01-19T13:32:19.278Z,67.74
2023-01-19T13:34:59.322Z,67.62
2023-01-19T13:37:32.216Z,66.84
2023-01-19T13:40:03.096Z,68.26
2023-01-19T13:42:36.397Z,68.92
2023-01-19T13:45:34.524Z,70.14
2023-01-19T13:48:09.962Z,70.81
2023-01-19T13:50:39.515Z,70.91
2023-01-19T13:53:21.095Z,73.93
2023-01-19T13:56:08.073Z,75.43
2023-01-19T13:58:36.804Z,74.62
2023-01-19T14:01:06.247Z,75.61
2023-01-19T14:03:36.177Z,76.20
2023-01-19T14:06:07.210Z,76.72
2023-01-19T14:08:37.413Z,76.84
2023-01-19T14:11:07.547Z,78.54
2023-01-19T14:13:39.496Z,78.52
2023-01-19T14:16:18.500Z,78.28
2023-01-19T14:18:49.809Z,78.08
2023-01-19T14:21:19.661Z,77.02
2023-01-19T14:24:08.681Z,76.34
2023-01-19T14:26:52.685Z,75.63
2023-01-19T14:29:32.945Z,75.36
2023-01-19T14:32:06.073Z,76.28
2023-01-19T14:34:44.708Z,77.18
2023-01-19T14:37:20.370Z,77.27
2023-01-19T14:39:58.750Z,78.14
2023-01-19T14:42:31.578Z,77.99
2023-01-19T14:45:03.887Z,77.71
2023-01-19T14:47:39.203Z,77.58
2023-01-19T14:50:26.851Z,77.63
2023-01-19T14:53:24.952Z,76.31
2023-01-19T14:55:57.413Z,75.66
2023-01-19T14:58:29.989Z,77.88
2023-01-19T15:01:00.013Z,77.04
2023-01-19T15:03:44.322Z,76.92
2023-01-19T15:06:04.461Z,76.90
2023-01-19T15:08:37.624Z,78.58
2023-01-19T15:11:22.748Z,79.54
2023-01-19T15:13:53.107Z,80.15
2023-01-19T15:16:27.195Z,81.01
2023-01-19T15:18:57.415Z,80.74
2023-01-19T15:21:27.417Z,80.76
2023-01-19T15:23:58.457Z,82.04
2023-01-19T15:26:28.385Z,81.94
2023-01-19T15:28:58.220Z,82.82
2023-01-19T15:31:28.317Z,83.43
2023-01-19T15:33:58.124Z,82.73
2023-01-19T15:36:28.273Z,82.45
2023-01-19T15:38:58.362Z,83.63
2023-01-19T15:41:32.626Z,83.70
2023-01-19T15:44:03.587Z,84.70
2023-01-19T15:46:33.952Z,84.12
2023-01-19T15:49:05.620Z,84.41
2023-01-19T15:51:35.754Z,84.14
2023-01-19T15:54:05.645Z,84.27
2023-01-19T15:56:35.425Z,84.30
2023-01-19T15:59:05.250Z,83.99
2023-01-19T16:01:36.224Z,82.64
2023-01-19T16:04:09.519Z,82.74
2023-01-19T16:06:39.202Z,83.51
2023-01-19T16:09:09.057Z,83.46
2023-01-19T16:11:38.965Z,83.07
2023-01-19T16:14:10.455Z,82.67
2023-01-19T16:16:42.352Z,82.58
2023-01-19T16:19:15.899Z,82.58
2023-01-19T16:21:45.741Z,82.35
2023-01-19T16:24:15.821Z,82.35
2023-01-19T16:26:45.674Z,81.56
2023-01-19T16:29:15.717Z,81.53
2023-01-19T16:31:46.230Z,81.59
2023-01-19T16:34:18.155Z,81.49
2023-01-19T16:36:47.932Z,82.02
2023-01-19T16:39:18.736Z,82.39
2023-01-19T16:41:48.612Z,82.80
2023-01-19T16:44:19.040Z,83.14
2023-01-19T16:46:51.817Z,83.73
2023-01-19T16:49:24.216Z,83.47
2023-01-19T16:51:58.336Z,84.07
2023-01-19T16:54:30.020Z,84.47
2023-01-19T16:57:00.132Z,85.21
2023-01-19T16:59:30.354Z,86.39
2023-01-19T17:02:00.349Z,86.48
2023-01-19T17:04:29.932Z,87.51
2023-01-19T17:06:59.694Z,86.43
2023-01-19T17:09:29.808Z,86.38
2023-01-19T17:12:00.153Z,86.50
2023-01-19T17:14:30.078Z,86.20
2023-01-19T17:17:02.682Z,86.30
2023-01-19T17:19:32.562Z,87.37
2023-01-19T17:22:02.406Z,86.91
2023-01-19T17:24:32.360Z,87.27
2023-01-19T17:27:02.241Z,86.40
2023-01-19T17:29:31.999Z,86.60
2023-01-19T17:32:02.120Z,86.82
2023-01-19T17:34:31.966Z,86.94
2023-01-19T17:37:03.371Z,87.53
2023-01-19T17:39:33.646Z,87.88
2023-01-19T17:42:03.470Z,86.97
2023-01-19T17:44:33.213Z,87.29
2023-01-19T17:47:03.117Z,86.70
2023-01-19T17:49:33.001Z,86.34
2023-01-19T17:52:02.761Z,87.53
2023-01-19T17:54:32.692Z,86.71
2023-01-19T17:57:02.483Z,86.74
2023-01-19T17:59:32.596Z,87.14
2023-01-19T18:02:02.706Z,87.03
2023-01-19T18:04:32.398Z,87.93
2023-01-19T18:07:02.199Z,87.07
2023-01-19T18:09:32.131Z,86.78
2023-01-19T18:12:01.909Z,86.81
2023-01-19T18:14:31.428Z,87.41
2023-01-19T18:17:01.295Z,87.04
2023-01-19T18:19:31.201Z,87.50
2023-01-19T18:22:01.115Z,87.38
2023-01-19T18:24:30.832Z,87.88
2023-01-19T18:27:00.637Z,87.37
2023-01-19T18:29:30.734Z,87.90
2023-01-19T18:32:00.481Z,89.18
2023-01-19T18:34:30.650Z,88.93
2023-01-19T18:37:00.476Z,88.89
2023-01-19T18:39:32.993Z,89.02
2023-01-19T18:42:02.841Z,88.90
2023-01-19T18:44:32.914Z,88.31
2023-01-19T18:47:02.815Z,88.40
2023-01-19T18:49:33.045Z,89.42
2023-01-19T18:52:03.961Z,89.12
2023-01-19T18:54:34.042Z,89.12
2023-01-19T18:57:03.843Z,88.10
2023-01-19T18:59:33.948Z,88.77
2023-01-19T19:02:05.463Z,87.91
2023-01-19T19:04:35.497Z,88.13
2023-01-19T19:07:05.392Z,88.07
2023-01-19T19:09:36.052Z,88.26
2023-01-19T19:12:06.058Z,87.72
2023-01-19T19:14:36.185Z,88.27
2023-01-19T19:17:06.047Z,89.25
2023-01-19T19:19:36.131Z,89.42
2023-01-19T19:22:06.116Z,88.96
2023-01-19T19:24:36.168Z,89.45
2023-01-19T19:27:06.281Z,90.08
2023-01-19T19:29:36.384Z,89.62
2023-01-19T19:32:06.365Z,89.71
2023-01-19T19:34:36.410Z,89.42
2023-01-19T19:37:06.232Z,90.35
2023-01-19T19:39:38.244Z,90.23
2023-01-19T19:42:08.561Z,90.58
2023-01-19T19:44:38.648Z,89.70
2023-01-19T19:47:08.615Z,89.02
2023-01-19T19:49:39.050Z,88.64
2023-01-19T19:52:08.828Z,88.78
2023-01-19T19:54:39.121Z,88.29
2023-01-19T19:57:08.919Z,89.31
2023-01-19T19:59:39.154Z,89.06
2023-01-19T20:02:12.730Z,88.76
2023-01-19T20:04:44.212Z,88.84
2023-01-19T20:07:14.022Z,89.57
2023-01-19T20:09:45.232Z,89.57
2023-01-19T20:12:15.947Z,89.63
2023-01-19T20:14:45.718Z,88.72
2023-01-19T20:17:15.492Z,88.84
2023-01-19T20:19:47.177Z,89.77
2023-01-19T20:22:18.589Z,89.35
2023-01-19T20:24:48.590Z,88.86
2023-01-19T20:27:18.969Z,89.06
2023-01-19T20:29:54.434Z,89.13
2023-01-19T20:32:25.137Z,89.13
2023-01-19T20:34:55.005Z,88.98
2023-01-19T20:37:24.815Z,89.26
2023-01-19T20:39:54.743Z,89.12
2023-01-19T20:42:24.560Z,89.34
2023-01-19T20:44:55.605Z,89.56
2023-01-19T20:47:25.879Z,89.15
2023-01-19T20:49:55.672Z,89.02
2023-01-19T20:52:25.460Z,89.68
2023-01-19T20:54:55.393Z,89.89
2023-01-19T20:57:25.335Z,89.91
2023-01-19T20:59:55.104Z,88.84
2023-01-19T21:02:28.414Z,89.16
2023-01-19T21:04:57.566Z,89.15
2023-01-19T21:07:27.538Z,89.26
2023-01-19T21:09:57.470Z,89.04
2023-01-19T21:12:27.232Z,88.48
2023-01-19T21:14:57.027Z,89.02
2023-01-19T21:17:26.870Z,88.53
2023-01-19T21:19:56.697Z,88.06
2023-01-19T21:22:26.536Z,88.00
2023-01-19T21:24:56.375Z,87.89
2023-01-19T21:27:26.189Z,88.32
2023-01-19T21:29:55.951Z,88.19
2023-01-19T21:32:25.854Z,88.13
2023-01-19T21:34:55.973Z,88.48
2023-01-19T21:37:26.199Z,88.67
2023-01-19T21:39:55.957Z,88.31
2023-01-19T21:42:25.562Z,88.29
2023-01-19T21:44:55.345Z,89.10
2023-01-19T21:47:25.122Z,89.48
2023-01-19T21:49:54.891Z,89.26
2023-01-19T21:52:24.744Z,89.24
2023-01-19T21:54:54.589Z,89.40
2023-01-19T21:57:24.414Z,88.77
2023-01-19T21:59:54.168Z,88.74
2023-01-19T22:02:37.883Z,88.18
2023-01-19T22:04:55.486Z,89.00
2023-01-19T22:07:25.384Z,88.65
2023-01-19T22:09:55.140Z,88.63
2023-01-19T22:12:25.001Z,88.35
2023-01-19T22:14:55.222Z,88.13
2023-01-19T22:17:25.087Z,88.25
2023-01-19T22:19:55.231Z,88.33
2023-01-19T22:22:24.729Z,87.96
2023-01-19T22:24:54.550Z,88.52
2023-01-19T22:27:24.702Z,87.71
2023-01-19T22:29:54.563Z,88.00
2023-01-19T22:32:24.419Z,88.26
2023-01-19T22:34:54.188Z,88.38
2023-01-19T22:37:24.019Z,88.74
2023-01-19T22:39:54.523Z,88.25
2023-01-19T22:42:24.285Z,88.61
2023-01-19T22:44:54.064Z,88.14
2023-01-19T22:47:23.864Z,88.08
2023-01-19T22:49:53.597Z,88.18
2023-01-19T22:52:23.534Z,87.26
2023-01-19T22:54:55.928Z,87.26
2023-01-19T22:57:25.916Z,87.18
2023-01-19T22:59:55.679Z,87.41
2023-01-19T23:02:25.420Z,87.19
2023-01-19T23:04:55.185Z,88.90
2023-01-19T23:07:25.013Z,89.25
2023-01-19T23:09:54.847Z,88.96
2023-01-19T23:12:24.390Z,88.75
2023-01-19T23:14:54.168Z,88.71
2023-01-19T23:17:23.968Z,89.16
2023-01-19T23:19:54.032Z,89.72
2023-01-19T23:22:23.478Z,89.25
2023-01-19T23:24:53.262Z,89.06
2023-01-19T23:27:23.084Z,87.89
2023-01-19T23:29:54.328Z,88.36
2023-01-19T23:32:24.270Z,89.29
2023-01-19T23:34:54.311Z,89.91
2023-01-19T23:37:24.165Z,90.77
2023-01-19T23:39:54.324Z,90.04
2023-01-19T23:42:24.183Z,90.18
2023-01-19T23:44:54.008Z,90.39
2023-01-19T23:47:24.165Z,90.55
2023-01-19T23:49:53.980Z,90.47
2023-01-19T23:52:24.166Z,90.73
2023-01-19T23:54:53.991Z,90.76
2023-01-19T23:57:23.741Z,89.66
2023-01-19T23:59:53.539Z,89.70
